sensor_id;sensor_type;location;lat;lon;timestamp;P1;durP1;ratioP1;P2;durP2;ratioP2
51949;SDS011;37974;53.218;6.640;2023-06-22T00:00:37;13.55;;;9.38;;
51949;SDS011;37974;53.218;6.640;2023-06-22T00:03:33;17.40;;;11.63;;
51949;SDS011;37974;53.218;6.640;2023-06-22T00:09:36;6.93;;;5.40;;
51949;SDS011;37974;53.218;6.640;2023-06-22T00:12:08;6.60;;;5.45;;
51949;SDS011;37974;53.218;6.640;2023-06-22T00:15:46;8.48;;;5.18;;
51949;SDS011;37974;53.218;6.640;2023-06-22T00:18:17;19.40;;;12.88;;
51949;SDS011;37974;53.218;6.640;2023-06-22T00:21:34;11.40;;;9.10;;
51949;SDS011;37974;53.218;6.640;2023-06-22T00:27:16;18.58;;;12.85;;
51949;SDS011;37974;53.218;6.640;2023-06-22T00:30:32;21.17;;;15.10;;
51949;SDS011;37974;53.218;6.640;2023-06-22T00:33:27;19.15;;;15.00;;
51949;SDS011;37974;53.218;6.640;2023-06-22T00:42:50;17.05;;;12.13;;
51949;SDS011;37974;53.218;6.640;2023-06-22T00:45:33;20.40;;;15.45;;
51949;SDS011;37974;53.218;6.640;2023-06-22T00:48:57;20.92;;;17.02;;
51949;SDS011;37974;53.218;6.640;2023-06-22T00:51:41;22.20;;;17.98;;
51949;SDS011;37974;53.218;6.640;2023-06-22T01:01:28;13.57;;;10.50;;
51949;SDS011;37974;53.218;6.640;2023-06-22T01:04:46;15.43;;;13.25;;
51949;SDS011;37974;53.218;6.640;2023-06-22T01:11:14;13.85;;;11.55;;
51949;SDS011;37974;53.218;6.640;2023-06-22T01:17:15;19.13;;;15.50;;
51949;SDS011;37974;53.218;6.640;2023-06-22T01:20:45;19.70;;;15.68;;
51949;SDS011;37974;53.218;6.640;2023-06-22T01:26:22;14.32;;;11.75;;
51949;SDS011;37974;53.218;6.640;2023-06-22T01:29:58;51.13;;;17.67;;
51949;SDS011;37974;53.218;6.640;2023-06-22T01:33:28;50.00;;;19.02;;
51949;SDS011;37974;53.218;6.640;2023-06-22T01:36:21;356.33;;;27.77;;
51949;SDS011;37974;53.218;6.640;2023-06-22T01:39:26;102.15;;;21.35;;
51949;SDS011;37974;53.218;6.640;2023-06-22T01:42:11;61.25;;;20.60;;
51949;SDS011;37974;53.218;6.640;2023-06-22T01:45:31;93.95;;;22.55;;
51949;SDS011;37974;53.218;6.640;2023-06-22T01:48:22;52.78;;;20.45;;
51949;SDS011;37974;53.218;6.640;2023-06-22T01:58:06;28.80;;;16.98;;
51949;SDS011;37974;53.218;6.640;2023-06-22T02:14:08;23.80;;;19.27;;
51949;SDS011;37974;53.218;6.640;2023-06-22T02:17:02;20.38;;;16.70;;
51949;SDS011;37974;53.218;6.640;2023-06-22T02:20:25;16.90;;;15.10;;
51949;SDS011;37974;53.218;6.640;2023-06-22T02:23:24;26.05;;;21.33;;
51949;SDS011;37974;53.218;6.640;2023-06-22T02:26:41;26.45;;;21.42;;
51949;SDS011;37974;53.218;6.640;2023-06-22T02:32:20;25.90;;;20.92;;
51949;SDS011;37974;53.218;6.640;2023-06-22T02:35:37;24.08;;;21.23;;
51949;SDS011;37974;53.218;6.640;2023-06-22T02:42:48;25.10;;;22.40;;
51949;SDS011;37974;53.218;6.640;2023-06-22T02:45:53;25.83;;;22.60;;
51949;SDS011;37974;53.218;6.640;2023-06-22T02:49:00;33.60;;;27.25;;
51949;SDS011;37974;53.218;6.640;2023-06-22T02:52:07;30.83;;;23.15;;
51949;SDS011;37974;53.218;6.640;2023-06-22T02:55:39;98.88;;;25.25;;
51949;SDS011;37974;53.218;6.640;2023-06-22T03:01:53;115.53;;;18.58;;
51949;SDS011;37974;53.218;6.640;2023-06-22T03:07:55;19.08;;;17.08;;
51949;SDS011;37974;53.218;6.640;2023-06-22T03:10:48;16.75;;;14.35;;
51949;SDS011;37974;53.218;6.640;2023-06-22T03:13:52;18.10;;;16.13;;
51949;SDS011;37974;53.218;6.640;2023-06-22T03:20:32;18.10;;;16.20;;
51949;SDS011;37974;53.218;6.640;2023-06-22T03:27:05;43.70;;;31.85;;
51949;SDS011;37974;53.218;6.640;2023-06-22T03:30:18;28.40;;;23.00;;
51949;SDS011;37974;53.218;6.640;2023-06-22T03:33:05;26.95;;;21.65;;
51949;SDS011;37974;53.218;6.640;2023-06-22T03:36:13;26.75;;;22.40;;
51949;SDS011;37974;53.218;6.640;2023-06-22T03:39:18;27.70;;;21.15;;
51949;SDS011;37974;53.218;6.640;2023-06-22T03:48:56;29.13;;;23.13;;
51949;SDS011;37974;53.218;6.640;2023-06-22T03:52:05;30.20;;;24.48;;
51949;SDS011;37974;53.218;6.640;2023-06-22T03:58:15;41.63;;;28.67;;
51949;SDS011;37974;53.218;6.640;2023-06-22T04:01:15;31.85;;;25.17;;
51949;SDS011;37974;53.218;6.640;2023-06-22T04:07:21;50.78;;;32.22;;
51949;SDS011;37974;53.218;6.640;2023-06-22T04:10:32;37.65;;;28.13;;
51949;SDS011;37974;53.218;6.640;2023-06-22T04:20:18;42.55;;;29.88;;
51949;SDS011;37974;53.218;6.640;2023-06-22T04:24:37;48.25;;;32.47;;
51949;SDS011;37974;53.218;6.640;2023-06-22T04:27:07;42.08;;;29.98;;
51949;SDS011;37974;53.218;6.640;2023-06-22T04:30:03;39.15;;;28.65;;
51949;SDS011;37974;53.218;6.640;2023-06-22T04:33:37;41.08;;;29.65;;
51949;SDS011;37974;53.218;6.640;2023-06-22T04:36:59;37.63;;;29.50;;
51949;SDS011;37974;53.218;6.640;2023-06-22T04:39:47;47.38;;;32.83;;
51949;SDS011;37974;53.218;6.640;2023-06-22T04:43:07;45.00;;;32.38;;
51949;SDS011;37974;53.218;6.640;2023-06-22T04:46:04;46.58;;;31.20;;
51949;SDS011;37974;53.218;6.640;2023-06-22T04:49:05;49.58;;;34.90;;
51949;SDS011;37974;53.218;6.640;2023-06-22T04:55:20;44.40;;;32.95;;
51949;SDS011;37974;53.218;6.640;2023-06-22T05:01:25;43.13;;;32.75;;
51949;SDS011;37974;53.218;6.640;2023-06-22T05:04:06;41.13;;;32.08;;
51949;SDS011;37974;53.218;6.640;2023-06-22T05:06:41;48.05;;;34.85;;
51949;SDS011;37974;53.218;6.640;2023-06-22T05:09:29;47.72;;;33.95;;
51949;SDS011;37974;53.218;6.640;2023-06-22T05:14:56;42.83;;;31.90;;
51949;SDS011;37974;53.218;6.640;2023-06-22T05:18:06;41.60;;;32.53;;
51949;SDS011;37974;53.218;6.640;2023-06-22T05:21:21;42.47;;;32.30;;
51949;SDS011;37974;53.218;6.640;2023-06-22T05:23:59;43.30;;;32.13;;
51949;SDS011;37974;53.218;6.640;2023-06-22T05:27:11;39.25;;;34.08;;
51949;SDS011;37974;53.218;6.640;2023-06-22T05:30:06;43.63;;;32.22;;
51949;SDS011;37974;53.218;6.640;2023-06-22T05:36:17;38.58;;;28.52;;
51949;SDS011;37974;53.218;6.640;2023-06-22T05:38:58;32.42;;;25.83;;
51949;SDS011;37974;53.218;6.640;2023-06-22T05:42:24;36.60;;;24.95;;
51949;SDS011;37974;53.218;6.640;2023-06-22T05:45:37;32.92;;;27.33;;
51949;SDS011;37974;53.218;6.640;2023-06-22T05:52:09;29.63;;;25.83;;
51949;SDS011;37974;53.218;6.640;2023-06-22T05:58:22;27.20;;;22.92;;
51949;SDS011;37974;53.218;6.640;2023-06-22T06:01:48;36.35;;;25.83;;
51949;SDS011;37974;53.218;6.640;2023-06-22T06:08:10;30.60;;;23.23;;
51949;SDS011;37974;53.218;6.640;2023-06-22T06:10:57;29.33;;;23.80;;
51949;SDS011;37974;53.218;6.640;2023-06-22T06:13:47;30.17;;;23.30;;
51949;SDS011;37974;53.218;6.640;2023-06-22T06:16:50;27.60;;;22.25;;
51949;SDS011;37974;53.218;6.640;2023-06-22T06:19:48;33.40;;;22.92;;
51949;SDS011;37974;53.218;6.640;2023-06-22T06:30:06;24.80;;;19.55;;
51949;SDS011;37974;53.218;6.640;2023-06-22T06:33:48;21.92;;;18.00;;
51949;SDS011;37974;53.218;6.640;2023-06-22T06:36:47;21.58;;;18.00;;
51949;SDS011;37974;53.218;6.640;2023-06-22T06:39:39;23.17;;;18.50;;
51949;SDS011;37974;53.218;6.640;2023-06-22T06:42:43;22.35;;;15.18;;
51949;SDS011;37974;53.218;6.640;2023-06-22T06:45:31;18.10;;;14.98;;
51949;SDS011;37974;53.218;6.640;2023-06-22T06:48:41;17.55;;;13.98;;
51949;SDS011;37974;53.218;6.640;2023-06-22T06:51:12;19.38;;;14.23;;
51949;SDS011;37974;53.218;6.640;2023-06-22T06:53:59;17.63;;;14.93;;
51949;SDS011;37974;53.218;6.640;2023-06-22T06:56:36;21.50;;;13.45;;
51949;SDS011;37974;53.218;6.640;2023-06-22T06:59:02;19.30;;;14.70;;
51949;SDS011;37974;53.218;6.640;2023-06-22T07:01:27;19.35;;;15.40;;
51949;SDS011;37974;53.218;6.640;2023-06-22T07:03:59;18.58;;;14.95;;
51949;SDS011;37974;53.218;6.640;2023-06-22T07:06:26;17.95;;;13.82;;
51949;SDS011;37974;53.218;6.640;2023-06-22T07:08:55;20.60;;;15.20;;
51949;SDS011;37974;53.218;6.640;2023-06-22T07:11:21;19.40;;;14.80;;
51949;SDS011;37974;53.218;6.640;2023-06-22T07:13:46;20.50;;;13.75;;
51949;SDS011;37974;53.218;6.640;2023-06-22T07:16:12;16.83;;;11.02;;
51949;SDS011;37974;53.218;6.640;2023-06-22T07:19:26;18.92;;;11.00;;
51949;SDS011;37974;53.218;6.640;2023-06-22T07:25:16;16.33;;;10.50;;
51949;SDS011;37974;53.218;6.640;2023-06-22T07:28:52;14.43;;;10.18;;
51949;SDS011;37974;53.218;6.640;2023-06-22T07:31:23;13.02;;;9.75;;
51949;SDS011;37974;53.218;6.640;2023-06-22T07:35:20;10.85;;;8.30;;
51949;SDS011;37974;53.218;6.640;2023-06-22T07:38:35;14.50;;;9.15;;
51949;SDS011;37974;53.218;6.640;2023-06-22T07:41:49;10.07;;;7.65;;
51949;SDS011;37974;53.218;6.640;2023-06-22T07:44:45;8.73;;;5.43;;
51949;SDS011;37974;53.218;6.640;2023-06-22T07:50:21;7.93;;;4.72;;
51949;SDS011;37974;53.218;6.640;2023-06-22T07:53:11;7.97;;;4.38;;
51949;SDS011;37974;53.218;6.640;2023-06-22T07:56:18;8.45;;;4.90;;
51949;SDS011;37974;53.218;6.640;2023-06-22T07:59:57;7.80;;;4.22;;
51949;SDS011;37974;53.218;6.640;2023-06-22T08:02:42;9.82;;;4.47;;
51949;SDS011;37974;53.218;6.640;2023-06-22T08:09:12;8.05;;;5.55;;
51949;SDS011;37974;53.218;6.640;2023-06-22T08:11:30;8.60;;;6.25;;
51949;SDS011;37974;53.218;6.640;2023-06-22T08:14:08;8.80;;;6.00;;
51949;SDS011;37974;53.218;6.640;2023-06-22T08:17:28;8.25;;;5.82;;
51949;SDS011;37974;53.218;6.640;2023-06-22T08:23:21;9.73;;;4.85;;
51949;SDS011;37974;53.218;6.640;2023-06-22T08:26:29;7.78;;;4.53;;
51949;SDS011;37974;53.218;6.640;2023-06-22T08:29:36;8.15;;;4.28;;
51949;SDS011;37974;53.218;6.640;2023-06-22T08:32:46;12.55;;;4.55;;
51949;SDS011;37974;53.218;6.640;2023-06-22T08:35:24;6.88;;;3.92;;
51949;SDS011;37974;53.218;6.640;2023-06-22T08:41:28;6.78;;;4.68;;
51949;SDS011;37974;53.218;6.640;2023-06-22T08:44:06;8.02;;;4.05;;
51949;SDS011;37974;53.218;6.640;2023-06-22T08:49:21;7.50;;;4.72;;
51949;SDS011;37974;53.218;6.640;2023-06-22T08:58:44;8.77;;;4.70;;
51949;SDS011;37974;53.218;6.640;2023-06-22T09:01:27;7.43;;;4.45;;
51949;SDS011;37974;53.218;6.640;2023-06-22T09:04:35;9.20;;;4.40;;
51949;SDS011;37974;53.218;6.640;2023-06-22T09:07:26;9.35;;;4.63;;
51949;SDS011;37974;53.218;6.640;2023-06-22T09:10:13;7.10;;;4.57;;
51949;SDS011;37974;53.218;6.640;2023-06-22T09:13:20;8.32;;;4.60;;
51949;SDS011;37974;53.218;6.640;2023-06-22T09:22:38;10.75;;;5.80;;
51949;SDS011;37974;53.218;6.640;2023-06-22T09:25:50;8.00;;;4.90;;
51949;SDS011;37974;53.218;6.640;2023-06-22T09:31:27;8.27;;;5.13;;
51949;SDS011;37974;53.218;6.640;2023-06-22T09:41:19;9.77;;;5.93;;
51949;SDS011;37974;53.218;6.640;2023-06-22T09:44:37;9.55;;;6.03;;
51949;SDS011;37974;53.218;6.640;2023-06-22T09:47:11;10.73;;;6.22;;
51949;SDS011;37974;53.218;6.640;2023-06-22T09:53:14;10.15;;;6.50;;
51949;SDS011;37974;53.218;6.640;2023-06-22T09:56:06;11.73;;;6.57;;
51949;SDS011;37974;53.218;6.640;2023-06-22T09:58:50;12.98;;;7.03;;
51949;SDS011;37974;53.218;6.640;2023-06-22T10:01:57;12.38;;;7.05;;
51949;SDS011;37974;53.218;6.640;2023-06-22T10:05:17;10.23;;;6.47;;
51949;SDS011;37974;53.218;6.640;2023-06-22T10:08:29;10.90;;;6.32;;
51949;SDS011;37974;53.218;6.640;2023-06-22T10:11:18;11.13;;;6.88;;
51949;SDS011;37974;53.218;6.640;2023-06-22T10:13:55;10.02;;;6.68;;
51949;SDS011;37974;53.218;6.640;2023-06-22T10:16:56;8.82;;;5.97;;
51949;SDS011;37974;53.218;6.640;2023-06-22T10:19:52;9.32;;;5.85;;
51949;SDS011;37974;53.218;6.640;2023-06-22T10:22:29;7.13;;;5.20;;
51949;SDS011;37974;53.218;6.640;2023-06-22T10:25:03;11.27;;;6.32;;
51949;SDS011;37974;53.218;6.640;2023-06-22T10:27:52;10.20;;;6.05;;
51949;SDS011;37974;53.218;6.640;2023-06-22T10:30:26;8.85;;;5.88;;
51949;SDS011;37974;53.218;6.640;2023-06-22T10:33:07;9.05;;;5.85;;
51949;SDS011;37974;53.218;6.640;2023-06-22T10:43:26;13.13;;;5.55;;
51949;SDS011;37974;53.218;6.640;2023-06-22T11:30:08;8.48;;;6.32;;
51949;SDS011;37974;53.218;6.640;2023-06-22T11:53:05;11.55;;;4.90;;
51949;SDS011;37974;53.218;6.640;2023-06-22T11:59:15;11.10;;;5.00;;
51949;SDS011;37974;53.218;6.640;2023-06-22T12:39:33;11.98;;;6.30;;
51949;SDS011;37974;53.218;6.640;2023-06-22T13:12:04;7.72;;;5.07;;
51949;SDS011;37974;53.218;6.640;2023-06-22T13:15:49;10.27;;;5.55;;
51949;SDS011;37974;53.218;6.640;2023-06-22T13:18:30;8.73;;;5.10;;
51949;SDS011;37974;53.218;6.640;2023-06-22T13:21:36;14.48;;;4.35;;
51949;SDS011;37974;53.218;6.640;2023-06-22T13:24:20;10.80;;;4.32;;
51949;SDS011;37974;53.218;6.640;2023-06-22T13:27:07;9.25;;;3.75;;
51949;SDS011;37974;53.218;6.640;2023-06-22T13:29:41;7.22;;;3.70;;
51949;SDS011;37974;53.218;6.640;2023-06-22T13:32:22;8.07;;;4.00;;
51949;SDS011;37974;53.218;6.640;2023-06-22T13:35:34;8.40;;;3.65;;
51949;SDS011;37974;53.218;6.640;2023-06-22T13:38:21;12.85;;;3.55;;
51949;SDS011;37974;53.218;6.640;2023-06-22T13:43:54;11.02;;;3.42;;
51949;SDS011;37974;53.218;6.640;2023-06-22T13:46:23;13.27;;;3.40;;
51949;SDS011;37974;53.218;6.640;2023-06-22T13:49:16;7.45;;;3.00;;
51949;SDS011;37974;53.218;6.640;2023-06-22T13:52:15;8.90;;;3.15;;
51949;SDS011;37974;53.218;6.640;2023-06-22T13:54:59;5.60;;;2.90;;
51949;SDS011;37974;53.218;6.640;2023-06-22T13:57:56;5.97;;;3.00;;
51949;SDS011;37974;53.218;6.640;2023-06-22T14:00:45;10.38;;;3.40;;
51949;SDS011;37974;53.218;6.640;2023-06-22T14:03:42;9.15;;;3.22;;
51949;SDS011;37974;53.218;6.640;2023-06-22T14:06:30;7.72;;;3.50;;
51949;SDS011;37974;53.218;6.640;2023-06-22T14:09:09;5.50;;;3.00;;
51949;SDS011;37974;53.218;6.640;2023-06-22T14:11:44;5.13;;;2.72;;
51949;SDS011;37974;53.218;6.640;2023-06-22T14:14:46;4.90;;;2.40;;
51949;SDS011;37974;53.218;6.640;2023-06-22T14:17:21;5.65;;;2.60;;
51949;SDS011;37974;53.218;6.640;2023-06-22T14:20:05;6.28;;;2.40;;
51949;SDS011;37974;53.218;6.640;2023-06-22T14:23:33;10.95;;;2.58;;
51949;SDS011;37974;53.218;6.640;2023-06-22T14:33:12;6.80;;;2.22;;
51949;SDS011;37974;53.218;6.640;2023-06-22T14:36:23;8.38;;;2.47;;
51949;SDS011;37974;53.218;6.640;2023-06-22T14:42:46;5.55;;;2.03;;
51949;SDS011;37974;53.218;6.640;2023-06-22T14:45:55;7.88;;;1.85;;
51949;SDS011;37974;53.218;6.640;2023-06-22T14:49:17;3.65;;;1.80;;
51949;SDS011;37974;53.218;6.640;2023-06-22T14:55:39;5.97;;;1.50;;
51949;SDS011;37974;53.218;6.640;2023-06-22T15:05:01;5.80;;;1.75;;
51949;SDS011;37974;53.218;6.640;2023-06-22T15:07:26;2.83;;;1.23;;
51949;SDS011;37974;53.218;6.640;2023-06-22T15:09:52;5.13;;;1.30;;
51949;SDS011;37974;53.218;6.640;2023-06-22T15:12:18;4.10;;;1.27;;
51949;SDS011;37974;53.218;6.640;2023-06-22T15:14:44;8.55;;;1.40;;
51949;SDS011;37974;53.218;6.640;2023-06-22T15:17:09;4.68;;;1.58;;
51949;SDS011;37974;53.218;6.640;2023-06-22T15:19:36;2.83;;;1.00;;
51949;SDS011;37974;53.218;6.640;2023-06-22T15:22:04;4.80;;;1.02;;
51949;SDS011;37974;53.218;6.640;2023-06-22T15:24:31;2.70;;;1.15;;
51949;SDS011;37974;53.218;6.640;2023-06-22T15:27:02;2.63;;;1.10;;
51949;SDS011;37974;53.218;6.640;2023-06-22T15:29:28;4.20;;;1.45;;
51949;SDS011;37974;53.218;6.640;2023-06-22T15:31:59;4.05;;;1.00;;
51949;SDS011;37974;53.218;6.640;2023-06-22T15:34:25;4.43;;;0.93;;
51949;SDS011;37974;53.218;6.640;2023-06-22T15:36:50;4.30;;;1.23;;
51949;SDS011;37974;53.218;6.640;2023-06-22T15:39:16;4.72;;;1.20;;
51949;SDS011;37974;53.218;6.640;2023-06-22T15:41:43;3.00;;;1.08;;
51949;SDS011;37974;53.218;6.640;2023-06-22T15:44:09;2.20;;;0.93;;
51949;SDS011;37974;53.218;6.640;2023-06-22T15:46:34;4.97;;;1.08;;
51949;SDS011;37974;53.218;6.640;2023-06-22T15:49:00;5.13;;;0.85;;
51949;SDS011;37974;53.218;6.640;2023-06-22T15:51:26;4.65;;;0.95;;
51949;SDS011;37974;53.218;6.640;2023-06-22T15:53:59;3.55;;;1.33;;
51949;SDS011;37974;53.218;6.640;2023-06-22T15:56:35;5.75;;;1.27;;
51949;SDS011;37974;53.218;6.640;2023-06-22T15:59:01;3.33;;;1.35;;
51949;SDS011;37974;53.218;6.640;2023-06-22T16:01:30;5.38;;;1.58;;
51949;SDS011;37974;53.218;6.640;2023-06-22T16:03:56;7.25;;;2.15;;
51949;SDS011;37974;53.218;6.640;2023-06-22T16:06:22;5.97;;;3.53;;
51949;SDS011;37974;53.218;6.640;2023-06-22T16:08:48;9.57;;;5.20;;
51949;SDS011;37974;53.218;6.640;2023-06-22T16:11:13;7.57;;;2.90;;
51949;SDS011;37974;53.218;6.640;2023-06-22T16:13:39;13.00;;;7.38;;
51949;SDS011;37974;53.218;6.640;2023-06-22T16:16:06;8.95;;;3.80;;
51949;SDS011;37974;53.218;6.640;2023-06-22T16:18:32;5.35;;;1.50;;
51949;SDS011;37974;53.218;6.640;2023-06-22T16:20:57;8.55;;;1.67;;
51949;SDS011;37974;53.218;6.640;2023-06-22T16:23:23;4.00;;;1.10;;
51949;SDS011;37974;53.218;6.640;2023-06-22T16:25:49;4.60;;;1.13;;
51949;SDS011;37974;53.218;6.640;2023-06-22T16:28:15;6.20;;;1.02;;
51949;SDS011;37974;53.218;6.640;2023-06-22T16:30:41;6.15;;;1.30;;
51949;SDS011;37974;53.218;6.640;2023-06-22T16:33:06;4.85;;;1.20;;
51949;SDS011;37974;53.218;6.640;2023-06-22T16:35:32;2.88;;;1.00;;
51949;SDS011;37974;53.218;6.640;2023-06-22T16:37:58;5.70;;;1.08;;
51949;SDS011;37974;53.218;6.640;2023-06-22T16:40:26;4.63;;;0.95;;
51949;SDS011;37974;53.218;6.640;2023-06-22T16:43:11;5.55;;;1.08;;
51949;SDS011;37974;53.218;6.640;2023-06-22T16:45:37;4.85;;;1.10;;
51949;SDS011;37974;53.218;6.640;2023-06-22T16:48:03;10.00;;;1.27;;
51949;SDS011;37974;53.218;6.640;2023-06-22T16:50:29;4.97;;;1.40;;
51949;SDS011;37974;53.218;6.640;2023-06-22T16:52:54;2.92;;;1.38;;
51949;SDS011;37974;53.218;6.640;2023-06-22T16:55:20;4.88;;;1.23;;
51949;SDS011;37974;53.218;6.640;2023-06-22T16:57:49;4.55;;;1.30;;
51949;SDS011;37974;53.218;6.640;2023-06-22T17:00:16;7.05;;;1.73;;
51949;SDS011;37974;53.218;6.640;2023-06-22T17:02:45;5.10;;;1.77;;
51949;SDS011;37974;53.218;6.640;2023-06-22T17:05:13;3.75;;;1.58;;
51949;SDS011;37974;53.218;6.640;2023-06-22T17:07:39;5.95;;;1.70;;
51949;SDS011;37974;53.218;6.640;2023-06-22T17:10:13;4.85;;;1.52;;
51949;SDS011;37974;53.218;6.640;2023-06-22T17:12:39;8.00;;;2.20;;
51949;SDS011;37974;53.218;6.640;2023-06-22T17:15:06;5.18;;;1.92;;
51949;SDS011;37974;53.218;6.640;2023-06-22T17:17:36;4.22;;;2.00;;
51949;SDS011;37974;53.218;6.640;2023-06-22T17:20:05;5.60;;;2.30;;
51949;SDS011;37974;53.218;6.640;2023-06-22T17:22:32;8.02;;;2.25;;
51949;SDS011;37974;53.218;6.640;2023-06-22T17:25:01;7.55;;;2.38;;
51949;SDS011;37974;53.218;6.640;2023-06-22T17:27:28;9.00;;;2.50;;
51949;SDS011;37974;53.218;6.640;2023-06-22T17:30:07;7.38;;;2.45;;
51949;SDS011;37974;53.218;6.640;2023-06-22T17:32:34;7.05;;;2.47;;
51949;SDS011;37974;53.218;6.640;2023-06-22T17:35:02;6.47;;;2.40;;
51949;SDS011;37974;53.218;6.640;2023-06-22T17:37:33;7.25;;;3.10;;
51949;SDS011;37974;53.218;6.640;2023-06-22T17:40:19;7.45;;;2.70;;
51949;SDS011;37974;53.218;6.640;2023-06-22T17:42:49;5.45;;;2.97;;
51949;SDS011;37974;53.218;6.640;2023-06-22T17:45:30;7.15;;;2.88;;
51949;SDS011;37974;53.218;6.640;2023-06-22T17:48:06;6.18;;;2.72;;
51949;SDS011;37974;53.218;6.640;2023-06-22T17:50:41;6.55;;;2.60;;
51949;SDS011;37974;53.218;6.640;2023-06-22T17:53:10;6.45;;;2.67;;
51949;SDS011;37974;53.218;6.640;2023-06-22T17:55:42;9.82;;;2.95;;
51949;SDS011;37974;53.218;6.640;2023-06-22T17:58:08;5.72;;;2.83;;
51949;SDS011;37974;53.218;6.640;2023-06-22T18:00:35;7.57;;;2.92;;
51949;SDS011;37974;53.218;6.640;2023-06-22T18:03:13;6.68;;;2.60;;
51949;SDS011;37974;53.218;6.640;2023-06-22T18:05:39;5.60;;;2.60;;
51949;SDS011;37974;53.218;6.640;2023-06-22T18:08:11;7.15;;;2.80;;
51949;SDS011;37974;53.218;6.640;2023-06-22T18:10:40;6.35;;;2.38;;
51949;SDS011;37974;53.218;6.640;2023-06-22T18:13:08;9.52;;;1.92;;
51949;SDS011;37974;53.218;6.640;2023-06-22T18:15:41;7.72;;;2.13;;
51949;SDS011;37974;53.218;6.640;2023-06-22T18:18:10;4.75;;;1.95;;
51949;SDS011;37974;53.218;6.640;2023-06-22T18:20:45;4.22;;;2.00;;
51949;SDS011;37974;53.218;6.640;2023-06-22T18:24:00;4.55;;;2.55;;
51949;SDS011;37974;53.218;6.640;2023-06-22T18:26:19;8.52;;;2.95;;
51949;SDS011;37974;53.218;6.640;2023-06-22T19:18:54;7.53;;;3.30;;
51949;SDS011;37974;53.218;6.640;2023-06-22T19:21:24;5.32;;;2.70;;
51949;SDS011;37974;53.218;6.640;2023-06-22T19:23:50;6.63;;;2.80;;
51949;SDS011;37974;53.218;6.640;2023-06-22T19:26:17;7.95;;;2.92;;
51949;SDS011;37974;53.218;6.640;2023-06-22T19:31:11;6.10;;;2.40;;
51949;SDS011;37974;53.218;6.640;2023-06-22T19:36:19;7.03;;;3.10;;
51949;SDS011;37974;53.218;6.640;2023-06-22T19:38:58;7.53;;;3.00;;
51949;SDS011;37974;53.218;6.640;2023-06-22T19:41:28;6.60;;;3.35;;
51949;SDS011;37974;53.218;6.640;2023-06-22T19:44:06;7.10;;;3.10;;
51949;SDS011;37974;53.218;6.640;2023-06-22T19:46:42;6.47;;;3.38;;
51949;SDS011;37974;53.218;6.640;2023-06-22T19:54:20;8.30;;;3.22;;
51949;SDS011;37974;53.218;6.640;2023-06-22T20:08:02;6.18;;;2.80;;
51949;SDS011;37974;53.218;6.640;2023-06-22T20:10:33;6.05;;;2.90;;
51949;SDS011;37974;53.218;6.640;2023-06-22T20:13:14;7.45;;;3.00;;
51949;SDS011;37974;53.218;6.640;2023-06-22T20:23:00;7.15;;;3.05;;
51949;SDS011;37974;53.218;6.640;2023-06-22T20:25:38;7.10;;;3.03;;
51949;SDS011;37974;53.218;6.640;2023-06-22T20:28:10;7.13;;;3.05;;
51949;SDS011;37974;53.218;6.640;2023-06-22T20:30:43;5.45;;;3.17;;
51949;SDS011;37974;53.218;6.640;2023-06-22T20:33:30;7.32;;;2.90;;
51949;SDS011;37974;53.218;6.640;2023-06-22T20:36:06;6.38;;;3.10;;
51949;SDS011;37974;53.218;6.640;2023-06-22T20:38:35;5.75;;;2.80;;
51949;SDS011;37974;53.218;6.640;2023-06-22T20:41:04;10.57;;;3.45;;
51949;SDS011;37974;53.218;6.640;2023-06-22T20:48:42;7.20;;;3.00;;
51949;SDS011;37974;53.218;6.640;2023-06-22T20:51:08;5.25;;;2.63;;
51949;SDS011;37974;53.218;6.640;2023-06-22T20:53:33;5.43;;;2.90;;
51949;SDS011;37974;53.218;6.640;2023-06-22T20:55:59;6.57;;;2.92;;
51949;SDS011;37974;53.218;6.640;2023-06-22T20:58:25;6.45;;;2.60;;
51949;SDS011;37974;53.218;6.640;2023-06-22T21:00:51;9.65;;;3.00;;
51949;SDS011;37974;53.218;6.640;2023-06-22T21:03:25;6.00;;;2.90;;
51949;SDS011;37974;53.218;6.640;2023-06-22T21:05:53;9.43;;;3.22;;
51949;SDS011;37974;53.218;6.640;2023-06-22T22:01:02;12.02;;;5.25;;
51949;SDS011;37974;53.218;6.640;2023-06-22T22:03:57;16.85;;;6.40;;
51949;SDS011;37974;53.218;6.640;2023-06-22T22:06:26;10.95;;;5.57;;
51949;SDS011;37974;53.218;6.640;2023-06-22T22:08:55;11.27;;;5.45;;
